< < Back
Terminal Aerodrome Forecast


Current Version              Previous Versions:   1  2  3  4  5  6  7  8  9  

Terminal Aerodrome Forecast

485
FTUS42 KGSP 201400 AAA
TAFGSP
TAF AMD
KGSP 201443Z 2015/2112 03014G25KT P6SM FEW060
     FM201800 03013G21KT P6SM FEW070 SCT250
     FM210100 04007KT P6SM FEW060 SCT250=



Latest METAR

510
SAUS70 KWBC 211000 RRC
MTRGSP
METAR KGSP 210953Z AUTO 01004KT 10SM CLR 09/02 A3016 RMK AO2 SLP208
T00940022


USA.gov is the U.S. government's official web portal to all federal, state and local government web resources and services.